Terminal Aerodrome Forecast
Issued by NWS Los Angeles, CA

Home | Current Version | Previous Version | Text Only | Print | Product List | Glossary On
Versions: 1 2 3 4 5 6 7 8 9 10 11 12 13 14 15 16 17 18 19 20 21 22 23 24 25 26
994
FTUS46 KLOX 201132
TAFSMX
TAF
KSMX 201132Z 2012/2112 VRB03KT P6SM VCSH OVC015
     FM201500 33008KT P6SM SCT025 BKN050
     FM201600 32015G25KT P6SM SCT250
     FM202000 31028G36KT P6SM SCT250
     FM210200 32015G22KT P6SM SKC
     FM210500 35008KT P6SM SKC=

USA.gov is the U.S. government's official web portal to all federal, state and local government web resources and services.